createdAt,value
2023-02-07T00:03:43.165Z,-4.10
2023-02-07T00:08:45.790Z,-3.90
2023-02-07T00:13:51.162Z,-4.10
2023-02-07T00:18:54.455Z,-4.00
2023-02-07T00:23:57.783Z,-4.20
2023-02-07T00:29:00.014Z,-4.00
2023-02-07T00:34:05.411Z,-4.00
2023-02-07T00:39:15.756Z,-4.00
2023-02-07T00:44:17.992Z,-4.10
2023-02-07T00:49:20.764Z,-4.10
2023-02-07T00:54:23.077Z,-4.20
2023-02-07T00:59:27.003Z,-4.30
2023-02-07T01:04:29.477Z,-4.20
2023-02-07T01:09:31.933Z,-4.50
2023-02-07T01:14:34.344Z,-4.60
2023-02-07T01:19:37.292Z,-4.80
2023-02-07T01:24:39.529Z,-4.50
2023-02-07T01:29:41.904Z,-4.60
2023-02-07T01:34:44.189Z,-4.80
2023-02-07T01:39:47.786Z,-4.60
2023-02-07T01:45:02.673Z,-4.70
2023-02-07T01:50:05.447Z,-4.80
2023-02-07T01:55:12.409Z,-4.80
2023-02-07T02:00:17.492Z,-4.30
2023-02-07T02:05:19.864Z,-4.60
2023-02-07T02:10:28.340Z,-4.60
2023-02-07T02:15:39.538Z,-4.80
2023-02-07T02:21:09.740Z,-4.70
2023-02-07T02:26:37.842Z,-4.90
2023-02-07T02:32:24.706Z,-4.80
2023-02-07T02:37:46.460Z,-4.60
2023-02-07T02:43:05.724Z,-4.90
2023-02-07T02:48:10.558Z,-4.70
2023-02-07T02:53:13.985Z,-4.70
2023-02-07T02:58:34.182Z,-4.90
2023-02-07T03:04:03.097Z,-4.80
2023-02-07T03:09:37.568Z,-4.90
2023-02-07T03:14:57.752Z,-5.10
2023-02-07T03:20:05.323Z,-5.20
2023-02-07T03:25:09.908Z,-5.10
2023-02-07T03:30:18.360Z,-5.10
2023-02-07T03:35:28.481Z,-5.20
2023-02-07T03:40:36.105Z,-5.10
2023-02-07T03:45:39.130Z,-5.20
2023-02-07T03:50:41.495Z,-5.30
2023-02-07T03:55:44.007Z,-5.40
2023-02-07T04:00:46.321Z,-5.20
2023-02-07T04:05:49.571Z,-5.20
2023-02-07T04:11:02.509Z,-5.20
2023-02-07T04:16:05.941Z,-5.40
2023-02-07T04:21:09.163Z,-5.00
2023-02-07T04:26:11.504Z,-4.70
2023-02-07T04:31:13.771Z,-4.20
2023-02-07T04:36:16.247Z,-4.20
2023-02-07T04:41:18.544Z,-4.20
2023-02-07T04:46:20.951Z,-3.90
2023-02-07T04:51:23.320Z,-3.70
2023-02-07T04:56:25.656Z,-3.60
2023-02-07T05:01:27.975Z,-3.50
2023-02-07T05:06:30.450Z,-3.30
2023-02-07T05:11:32.750Z,-3.30
2023-02-07T05:16:35.110Z,-3.10
2023-02-07T05:21:37.376Z,-3.20
2023-02-07T05:26:40.485Z,-2.90
2023-02-07T05:32:01.660Z,-3.00
2023-02-07T05:37:03.979Z,-2.90
2023-02-07T05:42:06.244Z,-2.70
2023-02-07T05:47:08.515Z,-2.60
2023-02-07T05:52:10.801Z,-2.60
2023-02-07T05:57:13.118Z,-2.50
2023-02-07T06:02:15.486Z,-2.20
2023-02-07T06:07:17.835Z,-2.10
2023-02-07T06:12:20.119Z,-2.10
2023-02-07T06:17:22.475Z,-1.80
2023-02-07T06:22:24.952Z,-1.80
2023-02-07T06:27:27.200Z,-2.00
2023-02-07T06:32:29.509Z,-1.70
2023-02-07T06:37:32.019Z,-1.80
2023-02-07T06:42:34.385Z,-1.70
2023-02-07T06:47:36.796Z,-1.60
2023-02-07T06:52:39.100Z,-1.70
2023-02-07T06:57:54.416Z,-1.80
2023-02-07T07:02:57.016Z,-1.50
2023-02-07T07:08:04.469Z,-1.30
2023-02-07T07:13:09.461Z,-1.50
2023-02-07T07:18:11.905Z,-1.40
2023-02-07T07:23:14.327Z,-1.20
2023-02-07T07:28:16.766Z,-1.20
2023-02-07T07:33:19.156Z,-1.00
2023-02-07T07:44:21.392Z,-1.10
2023-02-07T07:49:23.977Z,-0.90
2023-02-07T07:54:26.358Z,-0.70
2023-02-07T07:59:28.994Z,-0.70
2023-02-07T08:04:31.324Z,-0.40
2023-02-07T08:09:33.712Z,-0.60
2023-02-07T08:14:35.950Z,-0.60
2023-02-07T08:19:38.469Z,-0.40
2023-02-07T08:24:41.970Z,-0.30
2023-02-07T08:29:45.816Z,-0.40
2023-02-07T08:34:48.161Z,-0.10
2023-02-07T08:39:52.880Z,0.00
2023-02-07T08:44:57.156Z,0.00
2023-02-07T08:49:59.467Z,0.00
2023-02-07T08:55:01.776Z,0.20
2023-02-07T09:00:06.080Z,0.00
2023-02-07T09:05:17.507Z,0.00
2023-02-07T09:11:01.249Z,0.30
2023-02-07T09:16:06.812Z,0.30
2023-02-07T09:21:09.634Z,0.40
2023-02-07T09:26:20.659Z,0.40
2023-02-07T09:31:24.730Z,0.40
2023-02-07T09:36:28.913Z,0.40
2023-02-07T09:41:43.496Z,0.60
2023-02-07T09:46:52.820Z,0.60
2023-02-07T09:51:57.176Z,0.60
2023-02-07T09:57:04.013Z,0.70
2023-02-07T10:02:23.694Z,0.80
2023-02-07T10:07:26.390Z,0.90
2023-02-07T10:13:16.362Z,0.90
2023-02-07T10:18:45.850Z,1.00
2023-02-07T10:24:10.065Z,0.90
2023-02-07T10:29:55.375Z,1.00
2023-02-07T10:35:03.660Z,1.10
2023-02-07T10:40:24.746Z,1.20
2023-02-07T10:45:33.842Z,1.30
2023-02-07T10:50:38.120Z,1.10
2023-02-07T10:56:01.119Z,1.10
2023-02-07T11:01:03.809Z,1.30
2023-02-07T11:06:08.073Z,1.50
2023-02-07T11:11:33.006Z,1.50
2023-02-07T11:16:35.685Z,1.60
2023-02-07T11:21:43.325Z,1.80
2023-02-07T11:26:57.190Z,1.70
2023-02-07T11:32:01.807Z,1.70
2023-02-07T11:37:17.660Z,1.80
2023-02-07T11:42:32.346Z,1.90
2023-02-07T11:47:35.913Z,1.80
2023-02-07T11:52:40.826Z,1.90
2023-02-07T11:57:45.672Z,1.80
2023-02-07T12:02:59.754Z,1.90
2023-02-07T12:08:16.766Z,2.10
2023-02-07T12:13:24.370Z,2.00
2023-02-07T12:18:31.387Z,2.00
2023-02-07T12:23:52.427Z,2.00
2023-02-07T12:29:21.998Z,2.10
2023-02-07T12:34:45.871Z,2.20
2023-02-07T12:40:00.116Z,2.00
2023-02-07T12:45:04.320Z,1.90
2023-02-07T12:50:26.990Z,2.00
2023-02-07T12:55:44.584Z,2.20
2023-02-07T13:01:15.964Z,2.30
2023-02-07T13:06:46.840Z,2.00
2023-02-07T13:12:17.676Z,2.10
2023-02-07T13:18:07.642Z,2.10
2023-02-07T13:23:25.876Z,2.20
2023-02-07T13:29:08.903Z,2.10
2023-02-07T13:34:28.721Z,2.00
2023-02-07T13:46:56.655Z,2.00
2023-02-07T13:52:36.466Z,1.90
2023-02-07T13:57:52.150Z,1.60
2023-02-07T14:03:21.846Z,1.70
2023-02-07T14:08:27.055Z,1.80
2023-02-07T14:13:38.677Z,1.80
2023-02-07T14:18:51.565Z,1.90
2023-02-07T14:24:09.090Z,1.90
2023-02-07T14:29:21.033Z,2.00
2023-02-07T14:34:29.003Z,2.00
2023-02-07T14:39:51.575Z,1.90
2023-02-07T14:45:06.457Z,1.90
2023-02-07T14:50:26.817Z,1.70
2023-02-07T14:55:37.364Z,1.70
2023-02-07T15:00:53.897Z,1.70
2023-02-07T15:06:01.754Z,1.70
2023-02-07T15:11:10.811Z,1.60
2023-02-07T15:16:22.402Z,1.60
2023-02-07T15:21:35.164Z,1.60
2023-02-07T15:26:37.500Z,1.50
2023-02-07T15:31:41.333Z,1.50
2023-02-07T15:36:48.741Z,1.70
2023-02-07T15:41:52.863Z,1.70
2023-02-07T15:47:06.869Z,1.70
2023-02-07T15:52:35.674Z,1.60
2023-02-07T15:57:42.634Z,1.60
2023-02-07T16:02:53.940Z,1.50
2023-02-07T16:07:57.045Z,1.40
2023-02-07T16:13:17.329Z,1.40
2023-02-07T16:18:41.846Z,1.20
2023-02-07T16:23:45.280Z,1.10
2023-02-07T16:28:47.910Z,1.10
2023-02-07T16:33:50.311Z,1.10
2023-02-07T16:38:52.542Z,1.20
2023-02-07T16:43:55.488Z,1.20
2023-02-07T16:48:57.819Z,1.30
2023-02-07T16:54:00.095Z,1.40
2023-02-07T16:59:04.001Z,1.20
2023-02-07T17:04:06.306Z,1.10
2023-02-07T17:09:25.461Z,1.20
2023-02-07T17:14:28.726Z,1.30
2023-02-07T17:19:31.089Z,1.20
2023-02-07T17:24:33.565Z,1.10
2023-02-07T17:29:35.858Z,1.20
2023-02-07T17:34:38.117Z,1.10
2023-02-07T17:39:40.310Z,0.90
2023-02-07T17:44:42.598Z,0.80
2023-02-07T17:49:44.844Z,0.90
2023-02-07T17:54:47.076Z,0.90
2023-02-07T17:59:49.325Z,0.80
2023-02-07T18:04:51.718Z,0.90
2023-02-07T18:09:54.001Z,0.70
2023-02-07T18:14:56.873Z,1.00
2023-02-07T18:19:59.171Z,1.10
2023-02-07T18:25:01.500Z,1.10
2023-02-07T18:30:06.136Z,1.20
2023-02-07T18:35:08.725Z,1.10
2023-02-07T18:40:13.011Z,0.90
2023-02-07T18:45:15.497Z,0.80
2023-02-07T18:50:20.903Z,1.00
2023-02-07T18:55:23.181Z,1.00
2023-02-07T19:00:25.430Z,1.00
2023-02-07T19:05:27.924Z,1.00
2023-02-07T19:10:30.263Z,0.80
2023-02-07T19:15:32.579Z,0.80
2023-02-07T19:20:34.916Z,0.90
2023-02-07T19:25:37.563Z,0.70
2023-02-07T19:30:41.638Z,0.70
2023-02-07T19:35:44.261Z,0.70
2023-02-07T19:40:56.443Z,0.80
2023-02-07T19:45:58.853Z,0.80
2023-02-07T19:51:04.133Z,0.90
2023-02-07T19:56:11.338Z,0.90
2023-02-07T20:01:14.038Z,0.90
2023-02-07T20:06:21.253Z,1.10
2023-02-07T20:11:23.595Z,1.10
2023-02-07T20:16:26.531Z,1.00
2023-02-07T20:21:30.780Z,1.10
2023-02-07T20:26:38.961Z,1.20
2023-02-07T20:31:42.170Z,1.20
2023-02-07T20:36:44.761Z,1.00
2023-02-07T20:41:49.447Z,1.10
2023-02-07T20:46:53.216Z,1.10
2023-02-07T20:51:57.483Z,1.00
2023-02-07T20:56:59.862Z,1.00
2023-02-07T21:02:02.695Z,1.10
2023-02-07T21:07:08.172Z,1.20
2023-02-07T21:12:10.654Z,1.20
2023-02-07T21:17:13.290Z,1.20
2023-02-07T21:22:15.514Z,1.20
2023-02-07T21:27:17.885Z,1.10
2023-02-07T21:32:20.194Z,1.20
2023-02-07T21:37:23.842Z,1.20
2023-02-07T21:42:26.318Z,1.20
2023-02-07T21:47:28.921Z,1.10
2023-02-07T21:52:31.439Z,0.90
2023-02-07T21:57:33.824Z,0.80
2023-02-07T22:02:36.267Z,0.90
2023-02-07T22:07:38.938Z,1.00
2023-02-07T22:12:41.206Z,1.10
2023-02-07T22:17:43.479Z,1.10
2023-02-07T22:22:45.746Z,1.10
2023-02-07T22:27:48.040Z,1.00
2023-02-07T22:32:50.498Z,1.00
2023-02-07T22:37:52.768Z,1.00
2023-02-07T22:42:56.166Z,0.90
2023-02-07T22:47:58.398Z,0.90
2023-02-07T22:53:00.708Z,0.90
2023-02-07T22:58:02.931Z,0.90
2023-02-07T23:03:05.216Z,0.90
2023-02-07T23:08:08.031Z,0.90
2023-02-07T23:13:10.752Z,0.80
2023-02-07T23:18:15.528Z,0.90
2023-02-07T23:23:17.809Z,0.90
2023-02-07T23:28:20.165Z,0.90
2023-02-07T23:33:22.418Z,0.90
2023-02-07T23:38:25.042Z,0.80
2023-02-07T23:43:27.766Z,0.70
2023-02-07T23:48:30.102Z,0.80
2023-02-07T23:53:32.663Z,0.80
2023-02-07T23:58:34.974Z,0.70
